createdAt,value
2019-03-16T00:04:04.972Z,8.00
2019-03-16T00:09:11.697Z,6.00
2019-03-16T00:14:19.955Z,8.20
2019-03-16T00:19:26.448Z,6.80
2019-03-16T00:24:34.919Z,7.00
2019-03-16T00:29:43.415Z,7.00
2019-03-16T00:34:47.820Z,5.00
2019-03-16T00:39:51.891Z,6.00
2019-03-16T00:44:56.323Z,4.50
2019-03-16T00:49:59.419Z,4.00
2019-03-16T00:55:05.129Z,4.40
2019-03-16T01:00:14.251Z,3.40
2019-03-16T01:05:17.890Z,3.00
2019-03-16T01:10:24.396Z,4.00
2019-03-16T01:15:30.712Z,2.00
2019-03-16T01:20:38.659Z,4.40
2019-03-16T01:25:42.630Z,4.60
2019-03-16T01:30:47.446Z,4.00
2019-03-16T01:35:52.274Z,5.00
2019-03-16T01:40:58.124Z,5.00
2019-03-16T01:46:02.107Z,4.00
2019-03-16T01:51:09.524Z,5.00
2019-03-16T01:56:13.666Z,5.00
2019-03-16T02:01:19.287Z,3.33
2019-03-16T02:06:24.101Z,4.00
2019-03-16T02:11:27.263Z,3.67
2019-03-16T02:16:30.383Z,3.00
2019-03-16T02:21:33.434Z,4.00
2019-03-16T02:26:40.834Z,3.50
2019-03-16T02:31:45.704Z,5.00
2019-03-16T02:36:49.920Z,5.00
2019-03-16T02:41:57.086Z,3.00
2019-03-16T02:47:05.218Z,3.90
2019-03-16T02:52:09.879Z,4.33
2019-03-16T02:57:15.535Z,4.00
2019-03-16T03:02:23.579Z,3.50
2019-03-16T03:07:27.555Z,5.00
2019-03-16T03:12:33.391Z,4.00
2019-03-16T03:17:37.009Z,4.17
2019-03-16T03:22:42.583Z,4.67
2019-03-16T03:27:47.363Z,3.33
2019-03-16T03:32:51.360Z,3.00
2019-03-16T03:37:58.785Z,4.78
2019-03-16T03:43:04.764Z,4.00
2019-03-16T03:48:08.825Z,6.00
2019-03-16T03:53:12.444Z,8.00
2019-03-16T03:58:19.007Z,5.00
2019-03-16T04:03:23.980Z,4.67
2019-03-16T04:08:30.171Z,4.60
2019-03-16T04:13:34.983Z,6.00
2019-03-16T04:18:42.085Z,3.00
2019-03-16T04:23:49.172Z,6.00
2019-03-16T04:28:53.242Z,6.00
2019-03-16T04:34:00.067Z,5.00
2019-03-16T04:39:08.178Z,5.20
2019-03-16T04:44:12.059Z,5.00
2019-03-16T04:49:17.641Z,5.33
2019-03-16T04:54:22.514Z,4.33
2019-03-16T04:59:26.563Z,6.00
2019-03-16T05:04:41.855Z,4.00
2019-03-16T05:09:38.335Z,3.83
2019-03-16T05:14:43.018Z,24.50
2019-03-16T05:19:48.846Z,12.71
2019-03-16T05:24:55.715Z,14.57
2019-03-16T05:30:00.496Z,13.57
2019-03-16T05:35:04.907Z,4.33
2019-03-16T05:40:10.534Z,13.00
2019-03-16T05:45:18.244Z,9.83
2019-03-16T05:51:28.164Z,14.00
2019-03-16T05:58:12.232Z,7.00
2019-03-16T06:03:17.324Z,18.29
2019-03-16T06:08:22.035Z,17.57
2019-03-16T06:13:29.253Z,8.33
2019-03-16T06:18:33.205Z,7.60
2019-03-16T06:23:39.358Z,12.14
2019-03-16T06:28:43.106Z,8.00
2019-03-16T06:33:48.574Z,30.00
2019-03-16T06:38:54.039Z,16.86
2019-03-16T06:43:59.362Z,8.71
2019-03-16T06:49:02.571Z,13.33
2019-03-16T06:54:06.580Z,10.17
2019-03-16T06:59:14.346Z,10.00
2019-03-16T07:04:20.174Z,10.00
2019-03-16T07:09:26.271Z,11.00
2019-03-16T07:14:30.885Z,9.00
2019-03-16T07:19:37.375Z,21.57
2019-03-16T07:24:42.072Z,8.00
2019-03-16T07:29:48.729Z,9.00
2019-03-16T07:34:56.906Z,6.00
2019-03-16T07:40:01.118Z,11.00
2019-03-16T07:45:09.032Z,9.17
2019-03-16T07:50:13.232Z,5.60
2019-03-16T07:55:17.835Z,8.00
2019-03-16T08:00:26.997Z,22.25
2019-03-16T08:05:31.584Z,7.00
2019-03-16T08:10:38.869Z,7.17
2019-03-16T08:15:47.000Z,7.50
2019-03-16T08:20:51.089Z,8.00
2019-03-16T08:26:01.127Z,31.75
2019-03-16T08:31:04.309Z,7.60
2019-03-16T08:36:10.627Z,5.60
2019-03-16T08:41:14.458Z,5.60
2019-03-16T08:46:18.136Z,7.00
2019-03-16T08:51:24.576Z,8.00
2019-03-16T08:56:32.870Z,6.50
2019-03-16T09:01:40.406Z,6.00
2019-03-16T09:06:44.390Z,7.40
2019-03-16T09:11:52.676Z,10.00
2019-03-16T09:16:56.914Z,5.80
2019-03-16T09:22:02.949Z,6.60
2019-03-16T09:27:07.034Z,6.00
2019-03-16T09:32:14.515Z,8.17
2019-03-16T09:37:19.540Z,9.00
2019-03-16T09:42:27.535Z,6.00
2019-03-16T09:47:31.436Z,12.75
2019-03-16T09:52:35.480Z,7.17
2019-03-16T09:57:39.668Z,9.00
2019-03-16T10:02:43.795Z,6.00
2019-03-16T10:07:47.756Z,8.33
2019-03-16T10:12:54.458Z,7.00
2019-03-16T10:17:59.445Z,9.00
2019-03-16T10:23:04.284Z,7.00
2019-03-16T10:28:08.534Z,7.67
2019-03-16T10:33:12.845Z,9.83
2019-03-16T10:38:16.309Z,8.00
2019-03-16T10:43:20.605Z,8.33
2019-03-16T10:48:24.775Z,15.67
2019-03-16T10:53:29.894Z,9.60
2019-03-16T10:58:33.290Z,9.00
2019-03-16T11:03:39.733Z,7.80
2019-03-16T11:08:47.656Z,7.10
2019-03-16T11:13:51.856Z,8.40
2019-03-16T11:18:55.859Z,7.50
2019-03-16T11:23:59.922Z,8.00
2019-03-16T11:29:09.016Z,8.00
2019-03-16T11:34:11.762Z,7.40
2019-03-16T11:39:19.265Z,6.89
2019-03-16T11:44:26.922Z,7.00
2019-03-16T11:49:30.668Z,9.00
2019-03-16T11:54:38.939Z,10.43
2019-03-16T11:59:41.951Z,8.50
2019-03-16T12:04:49.582Z,6.80
2019-03-16T12:09:54.115Z,9.50
2019-03-16T12:14:57.558Z,6.00
2019-03-16T12:20:04.076Z,8.00
2019-03-16T12:25:12.446Z,17.80
2019-03-16T12:30:19.034Z,10.57
2019-03-16T12:35:23.376Z,9.67
2019-03-16T12:40:30.303Z,9.33
2019-03-16T12:45:33.919Z,5.33
2019-03-16T12:50:38.348Z,9.83
2019-03-16T12:55:41.934Z,7.00
2019-03-16T13:00:46.291Z,9.67
2019-03-16T13:05:49.790Z,8.00
2019-03-16T13:10:53.491Z,10.33
2019-03-16T13:15:57.090Z,9.00
2019-03-16T13:21:00.710Z,8.00
2019-03-16T13:26:05.839Z,10.00
2019-03-16T13:31:12.538Z,10.86
2019-03-16T13:36:15.832Z,9.00
2019-03-16T13:41:20.755Z,8.00
2019-03-16T13:46:24.180Z,8.00
2019-03-16T13:51:28.362Z,10.00
2019-03-16T13:56:35.055Z,12.00
2019-03-16T14:01:43.398Z,7.70
2019-03-16T14:06:52.510Z,9.73
2019-03-16T14:11:57.383Z,7.67
2019-03-16T14:17:02.371Z,9.57
2019-03-16T14:22:09.870Z,10.00
2019-03-16T14:27:13.946Z,7.17
2019-03-16T14:32:18.199Z,10.00
2019-03-16T14:37:24.931Z,5.40
2019-03-16T14:42:32.902Z,7.60
2019-03-16T14:47:41.535Z,11.43
2019-03-16T14:52:45.614Z,11.00
2019-03-16T14:57:49.767Z,7.00
2019-03-16T15:02:54.463Z,9.29
2019-03-16T15:07:59.321Z,8.67
2019-03-16T15:13:06.027Z,14.29
2019-03-16T15:18:12.506Z,12.29
2019-03-16T15:23:19.086Z,11.71
2019-03-16T15:28:22.672Z,11.00
2019-03-16T15:33:29.478Z,10.00
2019-03-16T15:38:34.509Z,13.00
2019-03-16T15:43:38.664Z,12.17
2019-03-16T15:48:45.308Z,13.71
2019-03-16T15:53:52.055Z,12.71
2019-03-16T15:58:58.735Z,11.00
2019-03-16T16:04:03.862Z,14.57
2019-03-16T16:09:10.462Z,12.00
2019-03-16T16:14:14.570Z,15.00
2019-03-16T16:19:21.836Z,9.67
2019-03-16T16:24:24.758Z,13.00
2019-03-16T16:29:30.791Z,14.86
2019-03-16T16:34:37.401Z,13.43
2019-03-16T16:39:42.305Z,8.33
2019-03-16T16:44:46.390Z,14.00
2019-03-16T16:49:49.179Z,14.00
2019-03-16T16:54:53.438Z,15.60
2019-03-16T16:59:58.452Z,17.00
2019-03-16T17:05:04.715Z,17.75
2019-03-16T17:10:09.423Z,15.33
2019-03-16T17:15:20.947Z,16.33
2019-03-16T17:20:27.334Z,14.71
2019-03-16T17:25:32.644Z,17.29
2019-03-16T17:30:36.266Z,17.67
2019-03-16T17:35:39.702Z,16.00
2019-03-16T17:40:45.258Z,21.25
2019-03-16T17:45:49.711Z,14.29
2019-03-16T17:50:55.684Z,17.43
2019-03-16T17:55:59.514Z,16.00
2019-03-16T18:01:02.716Z,18.00
2019-03-16T18:06:08.272Z,16.57
2019-03-16T18:11:13.839Z,18.87
2019-03-16T18:16:18.718Z,15.14
2019-03-16T18:21:21.707Z,21.00
2019-03-16T18:26:27.106Z,15.29
2019-03-16T18:31:30.895Z,16.00
2019-03-16T18:36:37.264Z,16.71
2019-03-16T18:41:41.870Z,15.86
2019-03-16T18:46:46.003Z,15.00
2019-03-16T18:51:49.532Z,16.00
2019-03-16T18:56:52.736Z,16.67
2019-03-16T19:01:58.208Z,17.00
2019-03-16T19:07:01.429Z,16.50
2019-03-16T19:12:04.897Z,16.00
2019-03-16T19:17:07.872Z,21.33
2019-03-16T19:22:13.973Z,13.00
2019-03-16T19:27:21.028Z,14.44
2019-03-16T19:32:33.612Z,22.67
2019-03-16T19:37:32.504Z,14.00
2019-03-16T19:42:38.187Z,16.00
2019-03-16T19:47:46.631Z,22.25
2019-03-16T19:52:51.468Z,14.71
2019-03-16T19:57:55.091Z,13.00
2019-03-16T20:03:01.051Z,14.29
2019-03-16T20:08:09.600Z,14.14
2019-03-16T20:13:15.528Z,16.29
2019-03-16T20:18:22.587Z,18.00
2019-03-16T20:23:26.127Z,22.75
2019-03-16T20:28:29.876Z,24.00
2019-03-16T20:33:35.953Z,21.87
2019-03-16T20:38:40.291Z,26.00
2019-03-16T20:43:46.416Z,26.12
2019-03-16T20:48:52.575Z,30.00
2019-03-16T20:53:55.339Z,26.67
2019-03-16T20:59:04.046Z,25.88
2019-03-16T21:04:12.719Z,23.00
2019-03-16T21:09:21.283Z,24.29
2019-03-16T21:14:27.282Z,18.00
2019-03-16T21:19:34.085Z,19.25
2019-03-16T21:24:37.526Z,20.00
2019-03-16T21:29:41.003Z,21.00
2019-03-16T21:34:44.385Z,18.33
2019-03-16T21:39:52.015Z,16.75
2019-03-16T21:44:59.614Z,17.00
2019-03-16T21:50:07.799Z,18.75
2019-03-16T21:55:14.230Z,19.00
2019-03-16T22:00:20.558Z,19.29
2019-03-16T22:05:26.249Z,17.29
2019-03-16T22:10:32.215Z,16.57
2019-03-16T22:15:35.431Z,16.00
2019-03-16T22:20:40.496Z,17.00
2019-03-16T22:25:47.026Z,14.14
2019-03-16T22:30:51.969Z,14.71
2019-03-16T22:35:57.642Z,12.57
2019-03-16T22:41:04.227Z,15.00
2019-03-16T22:46:10.597Z,14.43
2019-03-16T22:51:13.584Z,12.67
2019-03-16T22:56:19.271Z,14.71
2019-03-16T23:01:25.199Z,11.00
2019-03-16T23:06:31.618Z,11.29
2019-03-16T23:11:38.020Z,11.00
2019-03-16T23:16:44.608Z,12.29
2019-03-16T23:21:51.173Z,11.33
2019-03-16T23:26:57.786Z,13.57
2019-03-16T23:32:02.404Z,13.29
2019-03-16T23:37:05.811Z,13.00
2019-03-16T23:42:09.962Z,14.80
2019-03-16T23:47:18.962Z,12.50
2019-03-16T23:52:22.800Z,11.25
2019-03-16T23:57:27.683Z,14.67
